createdAt,value
2022-08-09T00:04:06.221Z,3.57
2022-08-09T00:09:17.744Z,3.63
2022-08-09T00:14:30.576Z,3.90
2022-08-09T00:19:40.391Z,3.60
2022-08-09T00:24:42.084Z,4.37
2022-08-09T00:30:25.232Z,3.83
2022-08-09T00:35:06.589Z,3.77
2022-08-09T00:40:16.939Z,4.20
2022-08-09T00:45:20.165Z,4.00
2022-08-09T00:50:25.709Z,4.40
2022-08-09T00:56:02.947Z,4.20
2022-08-09T01:00:54.556Z,4.10
2022-08-09T01:06:17.752Z,3.93
2022-08-09T01:11:42.333Z,4.37
2022-08-09T01:17:01.594Z,4.00
2022-08-09T01:22:16.418Z,4.00
2022-08-09T01:27:18.526Z,3.87
2022-08-09T01:32:39.172Z,4.10
2022-08-09T01:38:05.883Z,3.90
2022-08-09T01:43:03.906Z,3.70
2022-08-09T01:48:06.319Z,4.07
2022-08-09T01:53:19.800Z,3.90
2022-08-09T01:58:24.313Z,4.10
2022-08-09T02:03:26.224Z,4.30
2022-08-09T02:08:40.511Z,4.20
2022-08-09T02:13:55.296Z,4.17
2022-08-09T02:19:09.202Z,4.73
2022-08-09T02:24:12.354Z,3.90
2022-08-09T02:29:31.299Z,4.50
2022-08-09T02:34:41.245Z,4.40
2022-08-09T02:40:01.513Z,4.60
2022-08-09T02:45:07.077Z,3.90
2022-08-09T02:50:13.533Z,4.20
2022-08-09T02:55:20.237Z,4.27
2022-08-09T03:00:26.063Z,4.93
2022-08-09T03:05:28.636Z,4.50
2022-08-09T03:10:30.371Z,4.67
2022-08-09T03:15:40.496Z,4.40
2022-08-09T03:20:53.851Z,5.00
2022-08-09T03:25:58.582Z,5.00
2022-08-09T03:31:10.220Z,5.30
2022-08-09T03:36:27.805Z,4.17
2022-08-09T03:41:45.844Z,4.80
2022-08-09T03:46:50.526Z,4.37
2022-08-09T03:51:56.728Z,4.50
2022-08-09T03:57:04.565Z,4.70
2022-08-09T04:02:26.926Z,4.60
2022-08-09T04:07:47.284Z,4.33
2022-08-09T04:12:52.280Z,4.37
2022-08-09T04:17:57.474Z,4.30
2022-08-09T04:22:59.588Z,4.80
2022-08-09T04:28:02.631Z,5.10
2022-08-09T04:33:05.530Z,4.60
2022-08-09T04:38:09.524Z,6.37
2022-08-09T04:43:11.195Z,5.00
2022-08-09T04:48:15.496Z,5.13
2022-08-09T04:53:17.228Z,4.83
2022-08-09T04:58:18.941Z,5.03
2022-08-09T05:03:39.898Z,4.50
2022-08-09T05:08:44.053Z,5.00
2022-08-09T05:13:49.703Z,4.87
2022-08-09T05:18:59.269Z,4.50
2022-08-09T05:24:04.071Z,4.90
2022-08-09T05:29:06.622Z,6.00
2022-08-09T05:34:08.273Z,5.50
2022-08-09T05:39:28.562Z,5.13
2022-08-09T05:44:32.905Z,4.40
2022-08-09T05:50:23.941Z,4.23
2022-08-09T05:54:58.122Z,4.03
2022-08-09T06:00:09.023Z,4.50
2022-08-09T06:05:13.801Z,4.30
2022-08-09T06:10:15.655Z,4.03
2022-08-09T06:15:17.671Z,3.80
2022-08-09T06:20:19.433Z,3.63
2022-08-09T06:25:21.359Z,4.03
2022-08-09T06:30:23.160Z,3.50
2022-08-09T06:35:56.059Z,3.73
2022-08-09T06:40:46.512Z,4.13
2022-08-09T06:46:08.100Z,3.37
2022-08-09T06:51:10.952Z,3.60
2022-08-09T06:56:13.416Z,3.80
2022-08-09T07:01:16.344Z,3.70
2022-08-09T07:06:18.685Z,3.27
2022-08-09T07:11:23.466Z,3.47
2022-08-09T07:16:41.231Z,3.23
2022-08-09T07:21:55.844Z,3.20
2022-08-09T07:27:01.207Z,3.10
2022-08-09T07:32:03.551Z,3.60
2022-08-09T07:37:05.304Z,3.03
2022-08-09T07:42:17.401Z,3.43
2022-08-09T07:47:19.468Z,3.17
2022-08-09T07:52:29.813Z,3.63
2022-08-09T07:57:36.117Z,3.30
2022-08-09T08:02:42.257Z,3.70
2022-08-09T08:08:43.659Z,3.30
2022-08-09T08:13:06.307Z,3.30
2022-08-09T08:18:12.198Z,3.13
2022-08-09T08:23:18.552Z,3.30
2022-08-09T08:28:32.163Z,4.23
2022-08-09T08:33:49.589Z,3.60
2022-08-09T08:38:54.991Z,3.70
2022-08-09T08:44:02.523Z,3.37
2022-08-09T08:49:07.122Z,3.50
2022-08-09T08:54:20.403Z,3.20
2022-08-09T08:59:22.517Z,3.60
2022-08-09T09:04:33.177Z,3.40
2022-08-09T09:10:02.378Z,3.80
2022-08-09T09:15:07.018Z,3.20
2022-08-09T09:20:15.249Z,7.93
2022-08-09T09:26:04.292Z,3.40
2022-08-09T09:30:57.508Z,3.70
2022-08-09T09:36:06.239Z,3.33
2022-08-09T09:41:33.488Z,2.70
2022-08-09T09:46:51.729Z,3.50
2022-08-09T09:52:16.564Z,2.70
2022-08-09T09:58:03.317Z,2.70
2022-08-09T10:02:52.760Z,2.33
2022-08-09T10:08:25.951Z,3.23
2022-08-09T10:13:45.297Z,2.77
2022-08-09T10:18:54.436Z,2.80
2022-08-09T10:23:57.878Z,2.83
2022-08-09T10:29:35.922Z,2.57
2022-08-09T10:34:33.110Z,2.40
2022-08-09T10:39:40.888Z,2.67
2022-08-09T10:45:02.176Z,3.00
2022-08-09T10:50:57.428Z,3.10
2022-08-09T10:56:23.984Z,2.60
2022-08-09T11:03:14.429Z,2.83
2022-08-09T11:07:01.425Z,2.83
2022-08-09T11:12:12.146Z,2.70
2022-08-09T11:17:13.840Z,2.53
2022-08-09T11:22:21.557Z,4.43
2022-08-09T11:28:04.100Z,2.67
2022-08-09T11:33:19.209Z,2.60
2022-08-09T11:38:32.047Z,2.53
2022-08-09T11:43:34.844Z,3.60
2022-08-09T11:48:54.382Z,3.10
2022-08-09T11:54:13.131Z,2.70
2022-08-09T11:59:30.414Z,2.40
2022-08-09T12:04:37.976Z,11.10
2022-08-09T12:09:39.908Z,2.70
2022-08-09T12:15:08.299Z,2.90
2022-08-09T12:20:16.662Z,2.17
2022-08-09T12:25:36.492Z,1.90
2022-08-09T12:30:39.606Z,2.33
2022-08-09T12:35:42.898Z,3.37
2022-08-09T12:40:51.928Z,2.00
2022-08-09T12:46:00.007Z,1.90
2022-08-09T12:51:03.938Z,2.20
2022-08-09T12:56:43.409Z,2.80
2022-08-09T13:01:46.851Z,2.10
2022-08-09T13:06:51.084Z,2.97
2022-08-09T13:12:01.673Z,1.60
2022-08-09T13:17:05.206Z,1.98
2022-08-09T13:22:36.905Z,5.13
2022-08-09T13:27:54.318Z,6.80
2022-08-09T13:32:57.976Z,2.17
2022-08-09T13:38:00.226Z,2.00
2022-08-09T13:43:05.256Z,2.13
2022-08-09T13:48:11.360Z,1.80
2022-08-09T13:53:16.675Z,2.35
2022-08-09T13:58:18.398Z,1.83
2022-08-09T14:04:01.388Z,2.25
2022-08-09T14:08:43.353Z,4.25
2022-08-09T14:14:24.563Z,1.45
2022-08-09T14:19:07.199Z,3.70
2022-08-09T14:24:22.153Z,1.50
2022-08-09T14:30:35.124Z,1.40
2022-08-09T14:34:55.675Z,1.38
2022-08-09T14:39:58.567Z,1.15
2022-08-09T14:46:58.196Z,1.23
2022-08-09T14:50:23.494Z,1.10
2022-08-09T14:55:29.194Z,1.35
2022-08-09T15:00:36.123Z,1.20
2022-08-09T15:05:38.490Z,1.35
2022-08-09T15:10:41.319Z,1.10
2022-08-09T15:15:43.747Z,3.90
2022-08-09T15:22:00.632Z,1.45
2022-08-09T15:26:18.559Z,1.13
2022-08-09T15:31:41.659Z,1.42
2022-08-09T15:36:48.101Z,1.20
2022-08-09T15:41:50.815Z,1.10
2022-08-09T15:46:52.587Z,0.90
2022-08-09T15:52:03.580Z,1.00
2022-08-09T15:57:08.564Z,1.13
2022-08-09T16:02:13.420Z,1.00
2022-08-09T16:07:15.269Z,0.93
2022-08-09T16:12:17.869Z,1.15
2022-08-09T16:17:20.252Z,1.10
2022-08-09T16:22:24.234Z,1.10
2022-08-09T16:27:29.812Z,2.42
2022-08-09T16:32:53.285Z,1.00
2022-08-09T16:37:56.882Z,1.65
2022-08-09T16:43:02.254Z,1.25
2022-08-09T16:48:39.725Z,1.00
2022-08-09T16:53:33.828Z,1.10
2022-08-09T16:58:36.889Z,0.90
2022-08-09T17:03:38.839Z,1.30
2022-08-09T17:09:01.835Z,1.10
2022-08-09T17:14:05.247Z,1.20
2022-08-09T17:19:06.966Z,1.90
2022-08-09T17:24:27.071Z,1.30
2022-08-09T17:29:38.084Z,1.25
2022-08-09T17:35:07.697Z,1.38
2022-08-09T17:40:06.040Z,1.20
2022-08-09T17:45:37.565Z,1.20
2022-08-09T17:50:41.132Z,1.40
2022-08-09T17:56:03.390Z,1.37
2022-08-09T18:01:08.483Z,2.27
2022-08-09T18:06:14.838Z,1.57
2022-08-09T18:12:04.835Z,1.47
2022-08-09T18:16:56.365Z,1.50
2022-08-09T18:21:58.100Z,1.47
2022-08-09T18:27:03.609Z,1.20
2022-08-09T18:32:08.978Z,1.60
2022-08-09T18:37:48.819Z,1.47
2022-08-09T18:42:33.290Z,1.67
2022-08-09T18:47:37.631Z,1.70
2022-08-09T18:52:39.763Z,1.20
2022-08-09T18:57:45.436Z,1.60
2022-08-09T19:02:48.762Z,1.40
2022-08-09T19:08:04.854Z,1.30
2022-08-09T19:13:19.994Z,1.60
2022-08-09T19:18:33.926Z,1.67
2022-08-09T19:24:37.174Z,1.40
2022-08-09T19:29:15.468Z,1.30
2022-08-09T19:34:22.950Z,1.47
2022-08-09T19:39:43.569Z,2.00
2022-08-09T19:44:51.470Z,1.87
2022-08-09T19:50:09.569Z,1.37
2022-08-09T19:55:17.098Z,1.50
2022-08-09T20:00:21.301Z,1.80
2022-08-09T20:05:23.893Z,2.13
2022-08-09T20:10:33.995Z,2.70
2022-08-09T20:16:37.772Z,4.40
2022-08-09T20:20:58.703Z,4.50
2022-08-09T20:26:03.719Z,2.57
2022-08-09T20:31:09.183Z,2.43
2022-08-09T20:36:11.231Z,2.00
2022-08-09T20:41:12.972Z,1.97
2022-08-09T20:46:33.264Z,1.60
2022-08-09T20:51:41.320Z,2.13
2022-08-09T20:56:47.064Z,1.70
2022-08-09T21:01:51.599Z,1.87
2022-08-09T21:06:55.610Z,2.10
2022-08-09T21:18:21.742Z,1.90
2022-08-09T21:22:38.532Z,2.30
2022-08-09T21:27:51.246Z,2.83
2022-08-09T21:32:54.927Z,1.90
2022-08-09T21:38:00.360Z,2.23
2022-08-09T21:43:04.169Z,2.17
2022-08-09T21:48:07.932Z,2.10
2022-08-09T21:53:15.741Z,2.50
2022-08-09T21:58:31.429Z,2.30
2022-08-09T22:03:33.154Z,2.23
2022-08-09T22:08:38.474Z,2.13
2022-08-09T22:13:46.018Z,2.00
2022-08-09T22:18:54.583Z,2.30
2022-08-09T22:24:01.516Z,2.00
2022-08-09T22:29:07.205Z,2.03
2022-08-09T22:34:14.783Z,2.27
2022-08-09T22:39:47.242Z,2.20
2022-08-09T22:44:38.676Z,2.67
2022-08-09T22:49:47.496Z,2.70
2022-08-09T22:54:53.945Z,2.50
2022-08-09T22:59:59.337Z,2.30
2022-08-09T23:05:01.253Z,2.30
2022-08-09T23:10:07.859Z,2.20
2022-08-09T23:15:10.023Z,2.50
2022-08-09T23:20:11.865Z,2.90
2022-08-09T23:25:13.574Z,2.63
2022-08-09T23:30:15.330Z,2.40
2022-08-09T23:35:17.056Z,2.60
2022-08-09T23:40:18.762Z,2.67
2022-08-09T23:45:38.283Z,2.50
2022-08-09T23:50:40.331Z,2.63
2022-08-09T23:55:49.196Z,2.50
